sensor_id;sensor_type;location;lat;lon;timestamp;P1;durP1;ratioP1;P2;durP2;ratioP2
15177;SDS011;7689;53.612;-2.416;2022-12-28T00:00:50;9.27;;;3.37;;
15177;SDS011;7689;53.612;-2.416;2022-12-28T00:03:16;5.27;;;2.10;;
15177;SDS011;7689;53.612;-2.416;2022-12-28T00:05:41;7.43;;;2.23;;
15177;SDS011;7689;53.612;-2.416;2022-12-28T00:08:07;9.23;;;2.00;;
15177;SDS011;7689;53.612;-2.416;2022-12-28T00:10:33;4.33;;;1.80;;
15177;SDS011;7689;53.612;-2.416;2022-12-28T00:12:58;6.93;;;1.90;;
15177;SDS011;7689;53.612;-2.416;2022-12-28T00:15:24;6.13;;;2.43;;
15177;SDS011;7689;53.612;-2.416;2022-12-28T00:17:50;10.73;;;2.43;;
15177;SDS011;7689;53.612;-2.416;2022-12-28T00:20:15;7.70;;;2.10;;
15177;SDS011;7689;53.612;-2.416;2022-12-28T00:22:41;5.60;;;2.23;;
15177;SDS011;7689;53.612;-2.416;2022-12-28T00:25:07;5.97;;;1.90;;
15177;SDS011;7689;53.612;-2.416;2022-12-28T00:27:33;6.17;;;1.80;;
15177;SDS011;7689;53.612;-2.416;2022-12-28T00:29:58;5.83;;;2.20;;
15177;SDS011;7689;53.612;-2.416;2022-12-28T00:32:24;3.80;;;1.87;;
15177;SDS011;7689;53.612;-2.416;2022-12-28T00:34:50;5.03;;;2.00;;
15177;SDS011;7689;53.612;-2.416;2022-12-28T00:37:15;5.23;;;2.23;;
15177;SDS011;7689;53.612;-2.416;2022-12-28T00:39:41;2.07;;;1.50;;
15177;SDS011;7689;53.612;-2.416;2022-12-28T00:42:07;4.63;;;1.97;;
15177;SDS011;7689;53.612;-2.416;2022-12-28T00:44:33;6.17;;;2.50;;
15177;SDS011;7689;53.612;-2.416;2022-12-28T00:46:59;5.03;;;1.90;;
15177;SDS011;7689;53.612;-2.416;2022-12-28T00:49:24;9.50;;;2.27;;
15177;SDS011;7689;53.612;-2.416;2022-12-28T00:51:50;5.57;;;2.40;;
15177;SDS011;7689;53.612;-2.416;2022-12-28T00:54:16;7.37;;;2.63;;
15177;SDS011;7689;53.612;-2.416;2022-12-28T00:56:41;8.17;;;2.40;;
15177;SDS011;7689;53.612;-2.416;2022-12-28T00:59:07;7.40;;;2.20;;
15177;SDS011;7689;53.612;-2.416;2022-12-28T01:01:33;8.03;;;1.90;;
15177;SDS011;7689;53.612;-2.416;2022-12-28T01:03:59;8.43;;;2.20;;
15177;SDS011;7689;53.612;-2.416;2022-12-28T01:06:25;4.97;;;2.07;;
15177;SDS011;7689;53.612;-2.416;2022-12-28T01:08:52;3.57;;;2.00;;
15177;SDS011;7689;53.612;-2.416;2022-12-28T01:13:49;9.57;;;2.30;;
15177;SDS011;7689;53.612;-2.416;2022-12-28T01:16:22;8.67;;;1.90;;
15177;SDS011;7689;53.612;-2.416;2022-12-28T01:18:54;5.80;;;1.93;;
15177;SDS011;7689;53.612;-2.416;2022-12-28T01:21:22;10.20;;;2.53;;
15177;SDS011;7689;53.612;-2.416;2022-12-28T01:23:51;6.67;;;2.17;;
15177;SDS011;7689;53.612;-2.416;2022-12-28T01:26:18;8.40;;;2.77;;
15177;SDS011;7689;53.612;-2.416;2022-12-28T01:28:44;11.07;;;2.20;;
15177;SDS011;7689;53.612;-2.416;2022-12-28T01:31:13;9.10;;;2.30;;
15177;SDS011;7689;53.612;-2.416;2022-12-28T01:33:41;9.90;;;2.30;;
15177;SDS011;7689;53.612;-2.416;2022-12-28T01:36:07;7.97;;;2.57;;
15177;SDS011;7689;53.612;-2.416;2022-12-28T01:38:41;8.70;;;2.90;;
15177;SDS011;7689;53.612;-2.416;2022-12-28T01:41:09;10.30;;;2.23;;
15177;SDS011;7689;53.612;-2.416;2022-12-28T01:43:46;9.43;;;2.17;;
15177;SDS011;7689;53.612;-2.416;2022-12-28T01:46:39;7.80;;;2.77;;
15177;SDS011;7689;53.612;-2.416;2022-12-28T01:49:18;2.83;;;1.23;;
15177;SDS011;7689;53.612;-2.416;2022-12-28T01:52:22;0.10;;;0.10;;
15177;SDS011;7689;53.612;-2.416;2022-12-28T01:57:47;12.80;;;2.40;;
15177;SDS011;7689;53.612;-2.416;2022-12-28T02:00:36;7.73;;;2.80;;
15177;SDS011;7689;53.612;-2.416;2022-12-28T02:03:10;5.50;;;2.20;;
15177;SDS011;7689;53.612;-2.416;2022-12-28T02:05:43;12.73;;;2.60;;
15177;SDS011;7689;53.612;-2.416;2022-12-28T02:10:44;5.87;;;1.87;;
15177;SDS011;7689;53.612;-2.416;2022-12-28T02:13:11;5.60;;;2.10;;
15177;SDS011;7689;53.612;-2.416;2022-12-28T02:15:38;6.17;;;2.20;;
15177;SDS011;7689;53.612;-2.416;2022-12-28T02:18:03;7.00;;;1.97;;
15177;SDS011;7689;53.612;-2.416;2022-12-28T02:20:33;7.67;;;2.50;;
15177;SDS011;7689;53.612;-2.416;2022-12-28T02:23:22;17.40;;;2.40;;
15177;SDS011;7689;53.612;-2.416;2022-12-28T02:31:42;6.13;;;2.00;;
15177;SDS011;7689;53.612;-2.416;2022-12-28T02:36:48;5.53;;;2.47;;
15177;SDS011;7689;53.612;-2.416;2022-12-28T02:39:19;8.37;;;2.20;;
15177;SDS011;7689;53.612;-2.416;2022-12-28T02:41:48;5.87;;;2.37;;
15177;SDS011;7689;53.612;-2.416;2022-12-28T02:44:15;5.97;;;2.30;;
15177;SDS011;7689;53.612;-2.416;2022-12-28T02:47:01;1.97;;;1.80;;
15177;SDS011;7689;53.612;-2.416;2022-12-28T02:49:47;3.87;;;2.00;;
15177;SDS011;7689;53.612;-2.416;2022-12-28T02:52:38;6.17;;;2.37;;
15177;SDS011;7689;53.612;-2.416;2022-12-28T03:03:41;2.43;;;1.40;;
15177;SDS011;7689;53.612;-2.416;2022-12-28T03:12:28;5.77;;;1.93;;
15177;SDS011;7689;53.612;-2.416;2022-12-28T03:15:06;7.27;;;2.50;;
15177;SDS011;7689;53.612;-2.416;2022-12-28T03:17:37;3.97;;;1.60;;
15177;SDS011;7689;53.612;-2.416;2022-12-28T03:20:24;6.67;;;2.10;;
15177;SDS011;7689;53.612;-2.416;2022-12-28T03:23:13;5.53;;;1.83;;
15177;SDS011;7689;53.612;-2.416;2022-12-28T03:26:00;3.57;;;1.80;;
15177;SDS011;7689;53.612;-2.416;2022-12-28T03:28:47;6.60;;;1.70;;
15177;SDS011;7689;53.612;-2.416;2022-12-28T03:31:33;3.47;;;1.63;;
15177;SDS011;7689;53.612;-2.416;2022-12-28T03:34:00;5.87;;;1.90;;
15177;SDS011;7689;53.612;-2.416;2022-12-28T03:47:59;3.57;;;1.67;;
15177;SDS011;7689;53.612;-2.416;2022-12-28T03:50:27;8.43;;;2.20;;
15177;SDS011;7689;53.612;-2.416;2022-12-28T03:52:54;7.37;;;1.87;;
15177;SDS011;7689;53.612;-2.416;2022-12-28T03:55:23;4.60;;;1.80;;
15177;SDS011;7689;53.612;-2.416;2022-12-28T03:57:49;3.73;;;1.70;;
15177;SDS011;7689;53.612;-2.416;2022-12-28T04:00:15;7.97;;;2.37;;
15177;SDS011;7689;53.612;-2.416;2022-12-28T04:02:40;3.10;;;1.50;;
15177;SDS011;7689;53.612;-2.416;2022-12-28T04:05:06;5.57;;;1.90;;
15177;SDS011;7689;53.612;-2.416;2022-12-28T04:07:32;5.50;;;1.97;;
15177;SDS011;7689;53.612;-2.416;2022-12-28T04:09:57;12.40;;;2.37;;
15177;SDS011;7689;53.612;-2.416;2022-12-28T04:12:23;6.50;;;1.93;;
15177;SDS011;7689;53.612;-2.416;2022-12-28T04:14:49;4.87;;;1.80;;
15177;SDS011;7689;53.612;-2.416;2022-12-28T04:17:14;7.83;;;2.07;;
15177;SDS011;7689;53.612;-2.416;2022-12-28T04:19:40;2.80;;;1.80;;
15177;SDS011;7689;53.612;-2.416;2022-12-28T04:22:06;4.27;;;2.00;;
15177;SDS011;7689;53.612;-2.416;2022-12-28T04:24:31;6.37;;;2.10;;
15177;SDS011;7689;53.612;-2.416;2022-12-28T04:26:57;7.83;;;2.10;;
15177;SDS011;7689;53.612;-2.416;2022-12-28T04:29:23;3.63;;;2.10;;
15177;SDS011;7689;53.612;-2.416;2022-12-28T04:31:49;4.80;;;1.90;;
15177;SDS011;7689;53.612;-2.416;2022-12-28T04:34:14;4.77;;;2.43;;
15177;SDS011;7689;53.612;-2.416;2022-12-28T04:36:40;6.37;;;2.10;;
15177;SDS011;7689;53.612;-2.416;2022-12-28T04:39:06;6.37;;;2.07;;
15177;SDS011;7689;53.612;-2.416;2022-12-28T04:41:32;6.17;;;2.23;;
15177;SDS011;7689;53.612;-2.416;2022-12-28T04:43:58;3.70;;;2.07;;
15177;SDS011;7689;53.612;-2.416;2022-12-28T04:46:24;3.97;;;2.53;;
15177;SDS011;7689;53.612;-2.416;2022-12-28T04:48:50;3.20;;;2.03;;
15177;SDS011;7689;53.612;-2.416;2022-12-28T04:53:43;5.63;;;2.17;;
15177;SDS011;7689;53.612;-2.416;2022-12-28T04:56:09;6.40;;;2.50;;
15177;SDS011;7689;53.612;-2.416;2022-12-28T04:58:36;3.87;;;2.13;;
15177;SDS011;7689;53.612;-2.416;2022-12-28T05:01:06;3.17;;;1.90;;
15177;SDS011;7689;53.612;-2.416;2022-12-28T05:03:34;9.60;;;2.70;;
15177;SDS011;7689;53.612;-2.416;2022-12-28T05:06:01;4.27;;;1.93;;
15177;SDS011;7689;53.612;-2.416;2022-12-28T05:08:30;2.00;;;1.80;;
15177;SDS011;7689;53.612;-2.416;2022-12-28T05:11:00;5.13;;;2.63;;
15177;SDS011;7689;53.612;-2.416;2022-12-28T05:13:27;6.63;;;2.10;;
15177;SDS011;7689;53.612;-2.416;2022-12-28T05:15:53;7.20;;;2.67;;
15177;SDS011;7689;53.612;-2.416;2022-12-28T05:18:19;4.30;;;2.00;;
15177;SDS011;7689;53.612;-2.416;2022-12-28T05:20:44;7.37;;;1.77;;
15177;SDS011;7689;53.612;-2.416;2022-12-28T05:23:10;4.83;;;2.17;;
15177;SDS011;7689;53.612;-2.416;2022-12-28T05:25:36;3.00;;;1.93;;
15177;SDS011;7689;53.612;-2.416;2022-12-28T05:28:01;5.03;;;2.00;;
15177;SDS011;7689;53.612;-2.416;2022-12-28T05:30:27;5.80;;;2.00;;
15177;SDS011;7689;53.612;-2.416;2022-12-28T05:32:53;4.83;;;2.93;;
15177;SDS011;7689;53.612;-2.416;2022-12-28T05:35:19;5.53;;;2.17;;
15177;SDS011;7689;53.612;-2.416;2022-12-28T05:37:44;3.70;;;1.97;;
15177;SDS011;7689;53.612;-2.416;2022-12-28T05:40:10;4.30;;;2.10;;
15177;SDS011;7689;53.612;-2.416;2022-12-28T05:42:36;3.20;;;1.93;;
15177;SDS011;7689;53.612;-2.416;2022-12-28T05:45:01;5.83;;;2.20;;
15177;SDS011;7689;53.612;-2.416;2022-12-28T05:47:27;4.60;;;1.87;;
15177;SDS011;7689;53.612;-2.416;2022-12-28T05:49:53;9.77;;;2.70;;
15177;SDS011;7689;53.612;-2.416;2022-12-28T05:52:18;6.27;;;2.10;;
15177;SDS011;7689;53.612;-2.416;2022-12-28T05:54:44;6.90;;;1.83;;
15177;SDS011;7689;53.612;-2.416;2022-12-28T05:57:10;3.17;;;1.80;;
15177;SDS011;7689;53.612;-2.416;2022-12-28T05:59:35;4.70;;;1.70;;
15177;SDS011;7689;53.612;-2.416;2022-12-28T06:02:02;6.17;;;1.90;;
15177;SDS011;7689;53.612;-2.416;2022-12-28T06:04:28;4.73;;;1.83;;
15177;SDS011;7689;53.612;-2.416;2022-12-28T06:06:53;4.33;;;1.77;;
15177;SDS011;7689;53.612;-2.416;2022-12-28T06:09:19;3.23;;;1.57;;
15177;SDS011;7689;53.612;-2.416;2022-12-28T06:11:45;7.93;;;2.30;;
15177;SDS011;7689;53.612;-2.416;2022-12-28T06:14:11;9.23;;;2.47;;
15177;SDS011;7689;53.612;-2.416;2022-12-28T06:16:38;6.10;;;2.27;;
15177;SDS011;7689;53.612;-2.416;2022-12-28T06:19:06;8.33;;;2.50;;
15177;SDS011;7689;53.612;-2.416;2022-12-28T06:21:34;8.47;;;2.27;;
15177;SDS011;7689;53.612;-2.416;2022-12-28T06:24:02;4.97;;;1.93;;
15177;SDS011;7689;53.612;-2.416;2022-12-28T06:26:29;5.73;;;1.80;;
15177;SDS011;7689;53.612;-2.416;2022-12-28T06:28:56;7.73;;;1.87;;
15177;SDS011;7689;53.612;-2.416;2022-12-28T06:31:24;5.90;;;2.60;;
15177;SDS011;7689;53.612;-2.416;2022-12-28T06:33:52;6.57;;;2.10;;
15177;SDS011;7689;53.612;-2.416;2022-12-28T06:36:23;4.63;;;2.10;;
15177;SDS011;7689;53.612;-2.416;2022-12-28T06:38:50;5.13;;;2.20;;
15177;SDS011;7689;53.612;-2.416;2022-12-28T06:41:17;4.30;;;2.13;;
15177;SDS011;7689;53.612;-2.416;2022-12-28T06:43:45;5.47;;;2.27;;
15177;SDS011;7689;53.612;-2.416;2022-12-28T06:46:11;6.00;;;2.07;;
15177;SDS011;7689;53.612;-2.416;2022-12-28T06:48:38;6.97;;;2.47;;
15177;SDS011;7689;53.612;-2.416;2022-12-28T06:51:14;7.53;;;2.20;;
15177;SDS011;7689;53.612;-2.416;2022-12-28T06:53:42;5.17;;;2.40;;
15177;SDS011;7689;53.612;-2.416;2022-12-28T06:56:12;6.37;;;2.97;;
15177;SDS011;7689;53.612;-2.416;2022-12-28T06:58:43;7.10;;;2.60;;
15177;SDS011;7689;53.612;-2.416;2022-12-28T07:01:14;7.17;;;2.63;;
15177;SDS011;7689;53.612;-2.416;2022-12-28T07:03:45;7.67;;;2.83;;
15177;SDS011;7689;53.612;-2.416;2022-12-28T07:06:12;4.03;;;2.27;;
15177;SDS011;7689;53.612;-2.416;2022-12-28T07:08:40;11.77;;;2.70;;
15177;SDS011;7689;53.612;-2.416;2022-12-28T07:11:07;8.53;;;2.60;;
15177;SDS011;7689;53.612;-2.416;2022-12-28T07:13:38;4.87;;;2.10;;
15177;SDS011;7689;53.612;-2.416;2022-12-28T07:16:05;8.70;;;2.53;;
15177;SDS011;7689;53.612;-2.416;2022-12-28T07:18:33;5.43;;;2.33;;
15177;SDS011;7689;53.612;-2.416;2022-12-28T07:21:02;7.07;;;2.57;;
15177;SDS011;7689;53.612;-2.416;2022-12-28T07:23:29;3.00;;;2.30;;
15177;SDS011;7689;53.612;-2.416;2022-12-28T07:25:56;6.93;;;2.60;;
15177;SDS011;7689;53.612;-2.416;2022-12-28T07:28:23;4.93;;;2.77;;
15177;SDS011;7689;53.612;-2.416;2022-12-28T07:30:49;8.13;;;2.77;;
15177;SDS011;7689;53.612;-2.416;2022-12-28T07:33:14;5.53;;;2.23;;
15177;SDS011;7689;53.612;-2.416;2022-12-28T07:35:40;4.97;;;2.37;;
15177;SDS011;7689;53.612;-2.416;2022-12-28T07:38:06;3.17;;;2.40;;
15177;SDS011;7689;53.612;-2.416;2022-12-28T07:40:31;6.40;;;2.70;;
15177;SDS011;7689;53.612;-2.416;2022-12-28T07:43:00;9.60;;;2.90;;
15177;SDS011;7689;53.612;-2.416;2022-12-28T07:45:25;4.00;;;2.53;;
15177;SDS011;7689;53.612;-2.416;2022-12-28T07:47:51;4.83;;;2.73;;
15177;SDS011;7689;53.612;-2.416;2022-12-28T07:50:17;7.07;;;2.60;;
15177;SDS011;7689;53.612;-2.416;2022-12-28T07:52:42;5.60;;;2.60;;
15177;SDS011;7689;53.612;-2.416;2022-12-28T07:55:08;5.73;;;2.50;;
15177;SDS011;7689;53.612;-2.416;2022-12-28T07:57:34;8.50;;;3.30;;
15177;SDS011;7689;53.612;-2.416;2022-12-28T07:59:59;8.80;;;3.13;;
15177;SDS011;7689;53.612;-2.416;2022-12-28T08:02:25;8.90;;;4.43;;
15177;SDS011;7689;53.612;-2.416;2022-12-28T08:04:51;7.50;;;3.17;;
15177;SDS011;7689;53.612;-2.416;2022-12-28T08:07:16;4.30;;;2.90;;
15177;SDS011;7689;53.612;-2.416;2022-12-28T08:09:42;7.20;;;2.80;;
15177;SDS011;7689;53.612;-2.416;2022-12-28T08:12:08;6.83;;;4.00;;
15177;SDS011;7689;53.612;-2.416;2022-12-28T08:14:33;8.27;;;3.60;;
15177;SDS011;7689;53.612;-2.416;2022-12-28T08:16:59;9.70;;;3.67;;
15177;SDS011;7689;53.612;-2.416;2022-12-28T08:19:24;7.53;;;3.23;;
15177;SDS011;7689;53.612;-2.416;2022-12-28T08:21:50;9.07;;;2.97;;
15177;SDS011;7689;53.612;-2.416;2022-12-28T08:24:17;6.63;;;3.10;;
15177;SDS011;7689;53.612;-2.416;2022-12-28T08:26:43;7.47;;;3.10;;
15177;SDS011;7689;53.612;-2.416;2022-12-28T08:29:11;5.47;;;2.80;;
15177;SDS011;7689;53.612;-2.416;2022-12-28T08:31:40;10.13;;;3.43;;
15177;SDS011;7689;53.612;-2.416;2022-12-28T08:34:09;4.27;;;3.37;;
15177;SDS011;7689;53.612;-2.416;2022-12-28T08:36:37;5.90;;;3.00;;
15177;SDS011;7689;53.612;-2.416;2022-12-28T08:39:03;4.63;;;2.60;;
15177;SDS011;7689;53.612;-2.416;2022-12-28T08:41:29;6.30;;;3.43;;
15177;SDS011;7689;53.612;-2.416;2022-12-28T08:43:55;9.00;;;2.73;;
15177;SDS011;7689;53.612;-2.416;2022-12-28T08:46:22;5.53;;;2.87;;
15177;SDS011;7689;53.612;-2.416;2022-12-28T08:48:53;5.80;;;2.20;;
15177;SDS011;7689;53.612;-2.416;2022-12-28T08:51:21;9.80;;;3.23;;
15177;SDS011;7689;53.612;-2.416;2022-12-28T08:53:51;9.70;;;2.60;;
15177;SDS011;7689;53.612;-2.416;2022-12-28T08:56:19;4.13;;;2.17;;
15177;SDS011;7689;53.612;-2.416;2022-12-28T08:58:56;7.43;;;2.30;;
15177;SDS011;7689;53.612;-2.416;2022-12-28T09:01:23;3.40;;;2.23;;
15177;SDS011;7689;53.612;-2.416;2022-12-28T09:03:52;5.50;;;2.30;;
15177;SDS011;7689;53.612;-2.416;2022-12-28T09:06:20;4.43;;;2.83;;
15177;SDS011;7689;53.612;-2.416;2022-12-28T09:08:48;3.97;;;2.13;;
15177;SDS011;7689;53.612;-2.416;2022-12-28T09:11:15;6.30;;;3.20;;
15177;SDS011;7689;53.612;-2.416;2022-12-28T09:13:41;5.23;;;3.17;;
15177;SDS011;7689;53.612;-2.416;2022-12-28T09:16:08;5.77;;;2.77;;
15177;SDS011;7689;53.612;-2.416;2022-12-28T09:18:35;9.13;;;2.90;;
15177;SDS011;7689;53.612;-2.416;2022-12-28T09:23:41;6.23;;;2.63;;
15177;SDS011;7689;53.612;-2.416;2022-12-28T09:28:44;4.70;;;3.10;;
15177;SDS011;7689;53.612;-2.416;2022-12-28T09:31:14;10.77;;;3.30;;
15177;SDS011;7689;53.612;-2.416;2022-12-28T09:33:41;7.47;;;3.60;;
15177;SDS011;7689;53.612;-2.416;2022-12-28T09:36:26;5.07;;;2.63;;
15177;SDS011;7689;53.612;-2.416;2022-12-28T09:38:52;6.57;;;2.70;;
15177;SDS011;7689;53.612;-2.416;2022-12-28T09:46:33;5.87;;;2.80;;
15177;SDS011;7689;53.612;-2.416;2022-12-28T09:49:02;7.97;;;2.77;;
15177;SDS011;7689;53.612;-2.416;2022-12-28T09:51:31;6.27;;;3.00;;
15177;SDS011;7689;53.612;-2.416;2022-12-28T09:54:04;9.37;;;3.50;;
15177;SDS011;7689;53.612;-2.416;2022-12-28T09:56:34;5.10;;;2.87;;
15177;SDS011;7689;53.612;-2.416;2022-12-28T09:59:03;7.07;;;3.07;;
15177;SDS011;7689;53.612;-2.416;2022-12-28T10:01:32;6.07;;;3.00;;
15177;SDS011;7689;53.612;-2.416;2022-12-28T10:04:02;6.57;;;2.90;;
15177;SDS011;7689;53.612;-2.416;2022-12-28T10:06:29;5.80;;;3.27;;
15177;SDS011;7689;53.612;-2.416;2022-12-28T10:08:59;9.37;;;3.80;;
15177;SDS011;7689;53.612;-2.416;2022-12-28T10:11:38;5.83;;;2.90;;
15177;SDS011;7689;53.612;-2.416;2022-12-28T10:14:16;6.27;;;3.20;;
15177;SDS011;7689;53.612;-2.416;2022-12-28T10:16:54;5.33;;;3.00;;
15177;SDS011;7689;53.612;-2.416;2022-12-28T10:19:22;5.30;;;3.40;;
15177;SDS011;7689;53.612;-2.416;2022-12-28T10:21:57;3.80;;;3.33;;
15177;SDS011;7689;53.612;-2.416;2022-12-28T10:24:24;6.23;;;3.90;;
15177;SDS011;7689;53.612;-2.416;2022-12-28T10:26:50;4.93;;;3.33;;
15177;SDS011;7689;53.612;-2.416;2022-12-28T10:29:17;4.10;;;3.70;;
15177;SDS011;7689;53.612;-2.416;2022-12-28T10:31:54;5.03;;;3.50;;
15177;SDS011;7689;53.612;-2.416;2022-12-28T10:34:28;5.93;;;4.23;;
15177;SDS011;7689;53.612;-2.416;2022-12-28T10:36:55;6.30;;;4.30;;
15177;SDS011;7689;53.612;-2.416;2022-12-28T10:39:37;5.80;;;4.33;;
15177;SDS011;7689;53.612;-2.416;2022-12-28T10:42:03;4.13;;;3.53;;
15177;SDS011;7689;53.612;-2.416;2022-12-28T10:44:30;8.17;;;5.10;;
15177;SDS011;7689;53.612;-2.416;2022-12-28T10:47:44;4.70;;;3.80;;
15177;SDS011;7689;53.612;-2.416;2022-12-28T10:49:53;4.13;;;3.70;;
15177;SDS011;7689;53.612;-2.416;2022-12-28T10:52:19;4.13;;;3.53;;
15177;SDS011;7689;53.612;-2.416;2022-12-28T10:54:45;5.47;;;3.73;;
15177;SDS011;7689;53.612;-2.416;2022-12-28T10:57:16;3.90;;;3.20;;
15177;SDS011;7689;53.612;-2.416;2022-12-28T10:59:51;2.77;;;2.57;;
15177;SDS011;7689;53.612;-2.416;2022-12-28T11:04:52;3.60;;;3.23;;
15177;SDS011;7689;53.612;-2.416;2022-12-28T11:12:53;3.80;;;3.13;;
15177;SDS011;7689;53.612;-2.416;2022-12-28T11:15:24;4.07;;;2.80;;
15177;SDS011;7689;53.612;-2.416;2022-12-28T11:17:59;3.87;;;3.00;;
15177;SDS011;7689;53.612;-2.416;2022-12-28T11:20:38;3.07;;;2.87;;
15177;SDS011;7689;53.612;-2.416;2022-12-28T11:23:10;3.47;;;3.00;;
15177;SDS011;7689;53.612;-2.416;2022-12-28T11:25:44;3.30;;;2.93;;
15177;SDS011;7689;53.612;-2.416;2022-12-28T11:28:19;2.70;;;2.50;;
15177;SDS011;7689;53.612;-2.416;2022-12-28T11:30:47;2.57;;;2.37;;
15177;SDS011;7689;53.612;-2.416;2022-12-28T11:33:22;2.70;;;2.50;;
15177;SDS011;7689;53.612;-2.416;2022-12-28T11:35:48;2.77;;;2.30;;
15177;SDS011;7689;53.612;-2.416;2022-12-28T11:41:10;2.80;;;2.60;;
15177;SDS011;7689;53.612;-2.416;2022-12-28T11:43:56;2.53;;;2.33;;
15177;SDS011;7689;53.612;-2.416;2022-12-28T11:51:47;2.53;;;2.03;;
15177;SDS011;7689;53.612;-2.416;2022-12-28T11:54:41;1.67;;;1.63;;
15177;SDS011;7689;53.612;-2.416;2022-12-28T12:02:50;1.63;;;1.40;;
15177;SDS011;7689;53.612;-2.416;2022-12-28T12:10:40;1.20;;;1.20;;
15177;SDS011;7689;53.612;-2.416;2022-12-28T12:16:03;1.40;;;1.30;;
15177;SDS011;7689;53.612;-2.416;2022-12-28T12:18:44;1.40;;;1.30;;
15177;SDS011;7689;53.612;-2.416;2022-12-28T12:21:20;1.30;;;1.30;;
15177;SDS011;7689;53.612;-2.416;2022-12-28T12:24:04;1.37;;;1.33;;
15177;SDS011;7689;53.612;-2.416;2022-12-28T12:26:38;1.50;;;1.40;;
15177;SDS011;7689;53.612;-2.416;2022-12-28T12:31:43;1.13;;;1.13;;
15177;SDS011;7689;53.612;-2.416;2022-12-28T12:34:55;2.23;;;1.43;;
15177;SDS011;7689;53.612;-2.416;2022-12-28T12:37:20;1.10;;;1.10;;
15177;SDS011;7689;53.612;-2.416;2022-12-28T12:40:13;1.00;;;1.00;;
15177;SDS011;7689;53.612;-2.416;2022-12-28T13:04:53;1.77;;;1.27;;
15177;SDS011;7689;53.612;-2.416;2022-12-28T13:07:23;2.57;;;1.20;;
15177;SDS011;7689;53.612;-2.416;2022-12-28T13:09:51;2.70;;;1.17;;
15177;SDS011;7689;53.612;-2.416;2022-12-28T13:12:19;1.50;;;1.40;;
15177;SDS011;7689;53.612;-2.416;2022-12-28T13:14:46;1.67;;;1.10;;
15177;SDS011;7689;53.612;-2.416;2022-12-28T13:17:18;1.20;;;1.20;;
15177;SDS011;7689;53.612;-2.416;2022-12-28T13:19:45;1.30;;;1.30;;
15177;SDS011;7689;53.612;-2.416;2022-12-28T13:22:24;1.70;;;1.47;;
15177;SDS011;7689;53.612;-2.416;2022-12-28T13:24:57;1.30;;;1.30;;
15177;SDS011;7689;53.612;-2.416;2022-12-28T13:27:24;1.77;;;1.40;;
15177;SDS011;7689;53.612;-2.416;2022-12-28T13:29:57;1.60;;;1.60;;
15177;SDS011;7689;53.612;-2.416;2022-12-28T13:32:28;1.50;;;1.47;;
15177;SDS011;7689;53.612;-2.416;2022-12-28T13:34:56;1.30;;;1.30;;
15177;SDS011;7689;53.612;-2.416;2022-12-28T13:37:22;1.23;;;1.20;;
15177;SDS011;7689;53.612;-2.416;2022-12-28T13:39:49;1.40;;;1.40;;
15177;SDS011;7689;53.612;-2.416;2022-12-28T13:42:51;1.53;;;1.40;;
15177;SDS011;7689;53.612;-2.416;2022-12-28T13:45:10;1.83;;;1.50;;
15177;SDS011;7689;53.612;-2.416;2022-12-28T13:47:39;1.30;;;1.30;;
15177;SDS011;7689;53.612;-2.416;2022-12-28T13:50:13;1.97;;;1.60;;
15177;SDS011;7689;53.612;-2.416;2022-12-28T13:52:48;1.50;;;1.40;;
15177;SDS011;7689;53.612;-2.416;2022-12-28T13:55:41;3.30;;;1.90;;
15177;SDS011;7689;53.612;-2.416;2022-12-28T13:58:10;1.53;;;1.43;;
15177;SDS011;7689;53.612;-2.416;2022-12-28T14:00:47;2.67;;;1.47;;
15177;SDS011;7689;53.612;-2.416;2022-12-28T14:03:15;2.10;;;1.90;;
15177;SDS011;7689;53.612;-2.416;2022-12-28T14:05:43;2.17;;;1.97;;
15177;SDS011;7689;53.612;-2.416;2022-12-28T14:08:11;2.43;;;1.90;;
15177;SDS011;7689;53.612;-2.416;2022-12-28T14:10:39;1.80;;;1.70;;
15177;SDS011;7689;53.612;-2.416;2022-12-28T14:13:07;3.27;;;2.20;;
15177;SDS011;7689;53.612;-2.416;2022-12-28T14:15:34;1.73;;;1.60;;
15177;SDS011;7689;53.612;-2.416;2022-12-28T14:18:00;1.90;;;1.77;;
15177;SDS011;7689;53.612;-2.416;2022-12-28T14:20:28;2.50;;;1.90;;
15177;SDS011;7689;53.612;-2.416;2022-12-28T14:22:54;2.37;;;2.17;;
15177;SDS011;7689;53.612;-2.416;2022-12-28T14:25:20;6.00;;;2.17;;
15177;SDS011;7689;53.612;-2.416;2022-12-28T14:27:57;2.33;;;2.10;;
15177;SDS011;7689;53.612;-2.416;2022-12-28T14:31:13;2.50;;;2.30;;
15177;SDS011;7689;53.612;-2.416;2022-12-28T14:33:27;2.10;;;2.00;;
15177;SDS011;7689;53.612;-2.416;2022-12-28T14:35:56;2.17;;;1.97;;
15177;SDS011;7689;53.612;-2.416;2022-12-28T14:38:28;3.40;;;2.03;;
15177;SDS011;7689;53.612;-2.416;2022-12-28T14:40:58;2.30;;;2.10;;
15177;SDS011;7689;53.612;-2.416;2022-12-28T14:43:29;2.40;;;2.30;;
15177;SDS011;7689;53.612;-2.416;2022-12-28T14:48:51;2.17;;;2.07;;
15177;SDS011;7689;53.612;-2.416;2022-12-28T14:51:25;2.40;;;2.20;;
15177;SDS011;7689;53.612;-2.416;2022-12-28T14:56:42;3.47;;;2.63;;
15177;SDS011;7689;53.612;-2.416;2022-12-28T14:59:18;3.87;;;3.60;;
15177;SDS011;7689;53.612;-2.416;2022-12-28T15:01:48;3.30;;;3.10;;
15177;SDS011;7689;53.612;-2.416;2022-12-28T15:04:27;3.17;;;2.60;;
15177;SDS011;7689;53.612;-2.416;2022-12-28T15:07:02;2.87;;;2.70;;
15177;SDS011;7689;53.612;-2.416;2022-12-28T15:09:29;2.37;;;2.17;;
15177;SDS011;7689;53.612;-2.416;2022-12-28T15:14:40;4.30;;;2.33;;
15177;SDS011;7689;53.612;-2.416;2022-12-28T15:17:06;2.20;;;1.90;;
15177;SDS011;7689;53.612;-2.416;2022-12-28T15:19:33;6.37;;;2.40;;
15177;SDS011;7689;53.612;-2.416;2022-12-28T15:21:59;5.17;;;1.90;;
15177;SDS011;7689;53.612;-2.416;2022-12-28T15:24:24;1.77;;;1.63;;
15177;SDS011;7689;53.612;-2.416;2022-12-28T15:26:51;4.40;;;1.80;;
15177;SDS011;7689;53.612;-2.416;2022-12-28T15:29:17;4.80;;;1.70;;
15177;SDS011;7689;53.612;-2.416;2022-12-28T15:31:43;3.67;;;1.70;;
15177;SDS011;7689;53.612;-2.416;2022-12-28T15:34:08;3.43;;;1.83;;
15177;SDS011;7689;53.612;-2.416;2022-12-28T15:36:34;4.47;;;2.00;;
15177;SDS011;7689;53.612;-2.416;2022-12-28T15:39:00;4.90;;;2.47;;
15177;SDS011;7689;53.612;-2.416;2022-12-28T15:41:26;3.70;;;1.47;;
15177;SDS011;7689;53.612;-2.416;2022-12-28T15:44:11;5.13;;;1.80;;
15177;SDS011;7689;53.612;-2.416;2022-12-28T15:46:45;5.93;;;1.73;;
15177;SDS011;7689;53.612;-2.416;2022-12-28T15:49:13;6.63;;;1.67;;
15177;SDS011;7689;53.612;-2.416;2022-12-28T15:51:40;1.53;;;1.43;;
15177;SDS011;7689;53.612;-2.416;2022-12-28T15:54:06;4.80;;;1.73;;
15177;SDS011;7689;53.612;-2.416;2022-12-28T15:56:34;7.27;;;2.27;;
15177;SDS011;7689;53.612;-2.416;2022-12-28T15:59:02;5.60;;;1.57;;
15177;SDS011;7689;53.612;-2.416;2022-12-28T16:01:30;4.47;;;1.90;;
15177;SDS011;7689;53.612;-2.416;2022-12-28T16:03:58;7.97;;;2.20;;
15177;SDS011;7689;53.612;-2.416;2022-12-28T16:06:25;8.47;;;2.50;;
15177;SDS011;7689;53.612;-2.416;2022-12-28T16:08:52;5.27;;;2.20;;
15177;SDS011;7689;53.612;-2.416;2022-12-28T16:11:22;8.47;;;2.33;;
15177;SDS011;7689;53.612;-2.416;2022-12-28T16:13:49;8.63;;;2.27;;
15177;SDS011;7689;53.612;-2.416;2022-12-28T16:16:16;9.30;;;2.43;;
15177;SDS011;7689;53.612;-2.416;2022-12-28T16:18:43;10.67;;;2.60;;
15177;SDS011;7689;53.612;-2.416;2022-12-28T16:21:13;10.30;;;2.80;;
15177;SDS011;7689;53.612;-2.416;2022-12-28T16:23:40;8.77;;;2.30;;
15177;SDS011;7689;53.612;-2.416;2022-12-28T16:26:07;10.33;;;3.50;;
15177;SDS011;7689;53.612;-2.416;2022-12-28T16:28:34;7.50;;;2.47;;
15177;SDS011;7689;53.612;-2.416;2022-12-28T16:31:01;6.67;;;2.57;;
15177;SDS011;7689;53.612;-2.416;2022-12-28T16:33:27;9.73;;;3.10;;
15177;SDS011;7689;53.612;-2.416;2022-12-28T16:35:53;10.67;;;2.87;;
15177;SDS011;7689;53.612;-2.416;2022-12-28T16:38:19;9.37;;;2.53;;
15177;SDS011;7689;53.612;-2.416;2022-12-28T16:40:47;11.93;;;2.60;;
15177;SDS011;7689;53.612;-2.416;2022-12-28T16:43:13;6.33;;;2.80;;
15177;SDS011;7689;53.612;-2.416;2022-12-28T16:45:41;4.63;;;2.20;;
15177;SDS011;7689;53.612;-2.416;2022-12-28T16:48:11;9.10;;;2.73;;
15177;SDS011;7689;53.612;-2.416;2022-12-28T16:50:38;6.67;;;2.30;;
15177;SDS011;7689;53.612;-2.416;2022-12-28T16:53:04;10.67;;;2.20;;
15177;SDS011;7689;53.612;-2.416;2022-12-28T16:55:32;9.63;;;2.07;;
15177;SDS011;7689;53.612;-2.416;2022-12-28T16:58:03;11.27;;;2.63;;
15177;SDS011;7689;53.612;-2.416;2022-12-28T17:00:29;13.27;;;2.83;;